sensor_id;sensor_type;location;lat;lon;timestamp;pressure;altitude;pressure_sealevel;temperature;humidity
16580;BME280;8402;51.466;6.806;2022-08-21T00:01:03;101407.88;;;21.93;63.55
16580;BME280;8402;51.466;6.806;2022-08-21T00:03:33;101408.63;;;21.90;63.56
16580;BME280;8402;51.466;6.806;2022-08-21T00:06:01;101410.13;;;21.84;63.93
16580;BME280;8402;51.466;6.806;2022-08-21T00:08:29;101408.91;;;21.81;64.05
16580;BME280;8402;51.466;6.806;2022-08-21T00:10:57;101405.75;;;21.79;64.19
16580;BME280;8402;51.466;6.806;2022-08-21T00:13:25;101403.72;;;21.76;64.31
16580;BME280;8402;51.466;6.806;2022-08-21T00:15:55;101399.75;;;21.74;64.50
16580;BME280;8402;51.466;6.806;2022-08-21T00:18:24;101396.53;;;21.71;64.48
16580;BME280;8402;51.466;6.806;2022-08-21T00:20:52;101391.78;;;21.68;64.43
16580;BME280;8402;51.466;6.806;2022-08-21T00:23:20;101391.38;;;21.66;64.80
16580;BME280;8402;51.466;6.806;2022-08-21T00:25:49;101390.91;;;21.64;64.97
16580;BME280;8402;51.466;6.806;2022-08-21T00:28:17;101380.63;;;21.61;65.34
16580;BME280;8402;51.466;6.806;2022-08-21T00:30:45;101378.63;;;21.58;64.97
16580;BME280;8402;51.466;6.806;2022-08-21T00:33:14;101377.41;;;21.56;65.21
16580;BME280;8402;51.466;6.806;2022-08-21T00:35:43;101377.34;;;21.52;65.33
16580;BME280;8402;51.466;6.806;2022-08-21T00:38:11;101381.59;;;21.46;65.48
16580;BME280;8402;51.466;6.806;2022-08-21T00:40:43;101378.78;;;21.42;65.16
16580;BME280;8402;51.466;6.806;2022-08-21T00:43:14;101378.38;;;21.40;65.67
16580;BME280;8402;51.466;6.806;2022-08-21T00:45:42;101383.09;;;21.40;65.94
16580;BME280;8402;51.466;6.806;2022-08-21T00:48:11;101381.50;;;21.39;65.80
16580;BME280;8402;51.466;6.806;2022-08-21T00:50:50;101368.44;;;21.36;66.13
16580;BME280;8402;51.466;6.806;2022-08-21T00:53:19;101376.34;;;21.37;65.94
16580;BME280;8402;51.466;6.806;2022-08-21T00:55:48;101376.34;;;21.37;66.05
16580;BME280;8402;51.466;6.806;2022-08-21T00:58:18;101367.28;;;21.37;65.80
16580;BME280;8402;51.466;6.806;2022-08-21T01:00:48;101372.34;;;21.35;66.15
16580;BME280;8402;51.466;6.806;2022-08-21T01:03:20;101372.34;;;21.35;65.98
16580;BME280;8402;51.466;6.806;2022-08-21T01:05:51;101372.34;;;21.35;66.22
16580;BME280;8402;51.466;6.806;2022-08-21T01:08:20;101371.94;;;21.33;66.00
16580;BME280;8402;51.466;6.806;2022-08-21T01:10:49;101368.78;;;21.31;66.06
16580;BME280;8402;51.466;6.806;2022-08-21T01:13:21;101368.31;;;21.29;66.01
16580;BME280;8402;51.466;6.806;2022-08-21T01:15:53;101378.91;;;21.27;66.23
16580;BME280;8402;51.466;6.806;2022-08-21T01:18:22;101378.09;;;21.23;66.15
16580;BME280;8402;51.466;6.806;2022-08-21T01:21:16;101385.81;;;21.13;66.36
16580;BME280;8402;51.466;6.806;2022-08-21T01:23:50;101385.38;;;21.11;65.86
16580;BME280;8402;51.466;6.806;2022-08-21T01:26:21;101381.34;;;21.05;66.29
16580;BME280;8402;51.466;6.806;2022-08-21T01:29:02;101387.16;;;21.00;66.40
16580;BME280;8402;51.466;6.806;2022-08-21T01:31:33;101394.59;;;20.96;66.52
16580;BME280;8402;51.466;6.806;2022-08-21T01:34:01;101386.63;;;20.91;66.44
16580;BME280;8402;51.466;6.806;2022-08-21T01:36:30;101385.34;;;20.85;66.75
16580;BME280;8402;51.466;6.806;2022-08-21T01:38:59;101391.97;;;20.80;66.66
16580;BME280;8402;51.466;6.806;2022-08-21T01:41:27;101393.44;;;20.74;66.89
16580;BME280;8402;51.466;6.806;2022-08-21T01:43:55;101390.59;;;20.71;66.87
16580;BME280;8402;51.466;6.806;2022-08-21T01:46:23;101388.59;;;20.68;67.09
16580;BME280;8402;51.466;6.806;2022-08-21T01:48:51;101397.16;;;20.63;67.32
16580;BME280;8402;51.466;6.806;2022-08-21T01:51:19;101385.28;;;20.58;67.25
16580;BME280;8402;51.466;6.806;2022-08-21T01:53:48;101382.81;;;20.53;67.15
16580;BME280;8402;51.466;6.806;2022-08-21T01:56:17;101381.16;;;20.49;67.50
16580;BME280;8402;51.466;6.806;2022-08-21T01:58:46;101382.59;;;20.43;67.50
16580;BME280;8402;51.466;6.806;2022-08-21T02:01:15;101378.97;;;20.39;67.71
16580;BME280;8402;51.466;6.806;2022-08-21T02:03:43;101376.94;;;20.35;67.63
16580;BME280;8402;51.466;6.806;2022-08-21T02:06:13;101380.81;;;20.31;67.54
16580;BME280;8402;51.466;6.806;2022-08-21T02:08:41;101380.72;;;20.27;67.82
16580;BME280;8402;51.466;6.806;2022-08-21T02:11:10;101386.19;;;20.24;67.82
16580;BME280;8402;51.466;6.806;2022-08-21T02:13:39;101378.63;;;20.21;68.14
16580;BME280;8402;51.466;6.806;2022-08-21T02:16:07;101384.59;;;20.23;67.94
16580;BME280;8402;51.466;6.806;2022-08-21T02:18:36;101379.06;;;20.23;68.17
16580;BME280;8402;51.466;6.806;2022-08-21T02:21:04;101371.97;;;20.22;68.22
16580;BME280;8402;51.466;6.806;2022-08-21T02:23:33;101371.16;;;20.21;68.30
16580;BME280;8402;51.466;6.806;2022-08-21T02:26:03;101375.16;;;20.24;68.28
16580;BME280;8402;51.466;6.806;2022-08-21T02:28:33;101371.97;;;20.22;68.24
16580;BME280;8402;51.466;6.806;2022-08-21T02:31:02;101364.84;;;20.21;68.46
16580;BME280;8402;51.466;6.806;2022-08-21T02:33:31;101372.78;;;20.22;68.11
16580;BME280;8402;51.466;6.806;2022-08-21T02:36:00;101370.34;;;20.21;68.14
16580;BME280;8402;51.466;6.806;2022-08-21T02:38:32;101368.75;;;20.20;68.25
16580;BME280;8402;51.466;6.806;2022-08-21T02:41:00;101365.59;;;20.18;68.54
16580;BME280;8402;51.466;6.806;2022-08-21T02:43:28;101370.31;;;20.17;68.59
16580;BME280;8402;51.466;6.806;2022-08-21T02:45:58;101360.88;;;20.18;68.79
16580;BME280;8402;51.466;6.806;2022-08-21T02:48:29;101364.00;;;20.17;68.70
16580;BME280;8402;51.466;6.806;2022-08-21T02:50:59;101361.63;;;20.15;68.46
16580;BME280;8402;51.466;6.806;2022-08-21T02:53:28;101366.31;;;20.15;68.53
16580;BME280;8402;51.466;6.806;2022-08-21T02:55:59;101368.63;;;20.13;68.67
16580;BME280;8402;51.466;6.806;2022-08-21T02:58:30;101369.38;;;20.10;68.70
16580;BME280;8402;51.466;6.806;2022-08-21T03:01:00;101368.50;;;20.05;68.77
16580;BME280;8402;51.466;6.806;2022-08-21T03:03:29;101363.72;;;20.02;68.77
16580;BME280;8402;51.466;6.806;2022-08-21T03:05:56;101362.84;;;19.98;68.73
16580;BME280;8402;51.466;6.806;2022-08-21T03:08:25;101362.69;;;19.91;68.88
16580;BME280;8402;51.466;6.806;2022-08-21T03:10:53;101365.38;;;19.88;68.92
16580;BME280;8402;51.466;6.806;2022-08-21T03:13:22;101366.47;;;19.83;69.08
16580;BME280;8402;51.466;6.806;2022-08-21T03:15:50;101364.78;;;19.78;68.95
16580;BME280;8402;51.466;6.806;2022-08-21T03:18:19;101360.81;;;19.76;69.27
16580;BME280;8402;51.466;6.806;2022-08-21T03:20:48;101356.03;;;19.73;69.45
16580;BME280;8402;51.466;6.806;2022-08-21T03:23:17;101365.00;;;19.70;69.37
16580;BME280;8402;51.466;6.806;2022-08-21T03:25:46;101355.88;;;19.66;69.42
16580;BME280;8402;51.466;6.806;2022-08-21T03:28:16;101361.72;;;19.64;69.70
16580;BME280;8402;51.466;6.806;2022-08-21T03:30:45;101366.00;;;19.62;69.67
16580;BME280;8402;51.466;6.806;2022-08-21T03:33:14;101365.94;;;19.58;69.60
16580;BME280;8402;51.466;6.806;2022-08-21T03:35:52;101363.84;;;19.55;69.62
16580;BME280;8402;51.466;6.806;2022-08-21T03:38:22;101367.34;;;19.52;69.53
16580;BME280;8402;51.466;6.806;2022-08-21T03:40:52;101365.66;;;19.47;70.11
16580;BME280;8402;51.466;6.806;2022-08-21T03:43:23;101362.47;;;19.45;69.85
16580;BME280;8402;51.466;6.806;2022-08-21T03:45:51;101364.78;;;19.43;69.50
16580;BME280;8402;51.466;6.806;2022-08-21T03:48:19;101354.50;;;19.40;69.87
16580;BME280;8402;51.466;6.806;2022-08-21T03:50:51;101365.44;;;19.37;70.15
16580;BME280;8402;51.466;6.806;2022-08-21T03:53:20;101365.34;;;19.33;70.12
16580;BME280;8402;51.466;6.806;2022-08-21T03:55:49;101363.31;;;19.30;70.55
16580;BME280;8402;51.466;6.806;2022-08-21T03:58:20;101355.75;;;19.27;70.52
16580;BME280;8402;51.466;6.806;2022-08-21T04:00:51;101361.25;;;19.27;70.43
16580;BME280;8402;51.466;6.806;2022-08-21T04:03:20;101369.16;;;19.29;70.64
16580;BME280;8402;51.466;6.806;2022-08-21T04:05:50;101365.28;;;19.30;70.49
16580;BME280;8402;51.466;6.806;2022-08-21T04:08:18;101373.16;;;19.31;70.70
16580;BME280;8402;51.466;6.806;2022-08-21T04:10:48;101372.00;;;19.32;70.70
16580;BME280;8402;51.466;6.806;2022-08-21T04:13:16;101387.34;;;19.33;70.65
16580;BME280;8402;51.466;6.806;2022-08-21T04:15:44;101387.34;;;19.33;70.38
16580;BME280;8402;51.466;6.806;2022-08-21T04:18:12;101382.63;;;19.34;70.24
16580;BME280;8402;51.466;6.806;2022-08-21T04:20:42;101388.94;;;19.34;70.72
16580;BME280;8402;51.466;6.806;2022-08-21T04:23:17;101380.69;;;19.34;70.68
16580;BME280;8402;51.466;6.806;2022-08-21T04:25:50;101383.44;;;19.34;70.68
16580;BME280;8402;51.466;6.806;2022-08-21T04:28:18;101383.44;;;19.34;70.47
16580;BME280;8402;51.466;6.806;2022-08-21T04:30:48;101383.44;;;19.34;70.73
16580;BME280;8402;51.466;6.806;2022-08-21T04:33:20;101388.94;;;19.34;70.94
16580;BME280;8402;51.466;6.806;2022-08-21T04:35:49;101383.44;;;19.34;71.05
16580;BME280;8402;51.466;6.806;2022-08-21T04:38:18;101373.94;;;19.32;71.04
16580;BME280;8402;51.466;6.806;2022-08-21T04:40:48;101382.22;;;19.32;71.20
16580;BME280;8402;51.466;6.806;2022-08-21T04:43:16;101378.22;;;19.29;71.12
16580;BME280;8402;51.466;6.806;2022-08-21T04:45:46;101379.19;;;19.21;71.38
16580;BME280;8402;51.466;6.806;2022-08-21T04:48:16;101378.31;;;19.17;71.47
16580;BME280;8402;51.466;6.806;2022-08-21T04:50:47;101382.94;;;19.13;71.57
16580;BME280;8402;51.466;6.806;2022-08-21T04:53:22;101383.66;;;19.10;71.59
16580;BME280;8402;51.466;6.806;2022-08-21T04:55:50;101382.75;;;19.06;72.07
16580;BME280;8402;51.466;6.806;2022-08-21T04:58:21;101378.06;;;19.06;72.06
16580;BME280;8402;51.466;6.806;2022-08-21T05:00:52;101381.59;;;19.07;72.12
16580;BME280;8402;51.466;6.806;2022-08-21T05:03:21;101380.38;;;19.04;71.95
16580;BME280;8402;51.466;6.806;2022-08-21T05:05:49;101379.56;;;19.04;72.03
16580;BME280;8402;51.466;6.806;2022-08-21T05:08:21;101384.97;;;19.00;72.28
16580;BME280;8402;51.466;6.806;2022-08-21T05:10:51;101389.25;;;18.97;72.26
16580;BME280;8402;51.466;6.806;2022-08-21T05:13:25;101386.50;;;18.97;72.58
16580;BME280;8402;51.466;6.806;2022-08-21T05:15:53;101387.66;;;18.96;72.33
16580;BME280;8402;51.466;6.806;2022-08-21T05:18:22;101388.81;;;18.95;72.46
16580;BME280;8402;51.466;6.806;2022-08-21T05:20:50;101385.63;;;18.93;72.63
16580;BME280;8402;51.466;6.806;2022-08-21T05:23:19;101389.50;;;18.92;72.76
16580;BME280;8402;51.466;6.806;2022-08-21T05:25:47;101390.22;;;18.89;72.99
16580;BME280;8402;51.466;6.806;2022-08-21T05:28:15;101390.94;;;18.86;73.28
16580;BME280;8402;51.466;6.806;2022-08-21T05:30:45;101390.13;;;18.86;73.50
16580;BME280;8402;51.466;6.806;2022-08-21T05:33:13;101394.50;;;18.87;73.58
16580;BME280;8402;51.466;6.806;2022-08-21T05:35:41;101395.28;;;18.87;73.73
16580;BME280;8402;51.466;6.806;2022-08-21T05:38:09;101392.53;;;18.87;74.11
16580;BME280;8402;51.466;6.806;2022-08-21T05:40:45;101392.44;;;18.84;74.48
16580;BME280;8402;51.466;6.806;2022-08-21T05:43:13;101387.38;;;18.70;75.73
16580;BME280;8402;51.466;6.806;2022-08-21T05:45:44;101387.88;;;18.60;77.15
16580;BME280;8402;51.466;6.806;2022-08-21T05:48:16;101391.78;;;18.59;76.42
16580;BME280;8402;51.466;6.806;2022-08-21T05:50:45;101389.47;;;18.61;76.40
16580;BME280;8402;51.466;6.806;2022-08-21T05:53:15;101383.25;;;18.64;76.33
16580;BME280;8402;51.466;6.806;2022-08-21T05:55:45;101393.59;;;18.67;76.58
16580;BME280;8402;51.466;6.806;2022-08-21T05:58:14;101398.81;;;18.72;76.67
16580;BME280;8402;51.466;6.806;2022-08-21T06:00:44;101386.69;;;18.73;76.53
16580;BME280;8402;51.466;6.806;2022-08-21T06:03:15;101394.56;;;18.75;76.55
16580;BME280;8402;51.466;6.806;2022-08-21T06:05:44;101391.44;;;18.76;76.88
16580;BME280;8402;51.466;6.806;2022-08-21T06:08:13;101388.44;;;18.81;76.53
16580;BME280;8402;51.466;6.806;2022-08-21T06:10:41;101387.72;;;18.84;76.51
16580;BME280;8402;51.466;6.806;2022-08-21T06:13:10;101389.50;;;18.92;76.00
16580;BME280;8402;51.466;6.806;2022-08-21T06:15:39;101397.50;;;18.97;76.13
16580;BME280;8402;51.466;6.806;2022-08-21T06:18:07;101394.47;;;19.03;76.00
16580;BME280;8402;51.466;6.806;2022-08-21T06:20:35;101393.75;;;19.06;75.89
16580;BME280;8402;51.466;6.806;2022-08-21T06:23:03;101402.56;;;19.11;75.75
16580;BME280;8402;51.466;6.806;2022-08-21T06:25:32;101393.94;;;19.13;75.89
16580;BME280;8402;51.466;6.806;2022-08-21T06:28:01;101402.09;;;19.25;75.58
16580;BME280;8402;51.466;6.806;2022-08-21T06:30:31;101396.03;;;19.35;75.81
16580;BME280;8402;51.466;6.806;2022-08-21T06:33:00;101397.09;;;19.46;75.31
16580;BME280;8402;51.466;6.806;2022-08-21T06:35:31;101394.94;;;19.56;74.51
16580;BME280;8402;51.466;6.806;2022-08-21T06:37:59;101402.31;;;19.67;74.49
16580;BME280;8402;51.466;6.806;2022-08-21T06:40:28;101401.88;;;19.85;73.72
16580;BME280;8402;51.466;6.806;2022-08-21T06:43:06;101404.25;;;20.02;73.42
16580;BME280;8402;51.466;6.806;2022-08-21T06:45:36;101403.41;;;20.21;72.88
16580;BME280;8402;51.466;6.806;2022-08-21T06:48:05;101402.84;;;20.31;72.18
16580;BME280;8402;51.466;6.806;2022-08-21T06:50:33;101403.22;;;20.49;71.94
16580;BME280;8402;51.466;6.806;2022-08-21T06:53:04;101401.28;;;20.72;71.29
16580;BME280;8402;51.466;6.806;2022-08-21T06:55:32;101405.09;;;20.87;70.19
16580;BME280;8402;51.466;6.806;2022-08-21T06:58:01;101397.19;;;21.08;70.08
16580;BME280;8402;51.466;6.806;2022-08-21T07:00:29;101394.34;;;21.28;69.26
16580;BME280;8402;51.466;6.806;2022-08-21T07:02:59;101393.59;;;21.57;69.49
16580;BME280;8402;51.466;6.806;2022-08-21T07:05:29;101396.41;;;21.91;68.27
16580;BME280;8402;51.466;6.806;2022-08-21T07:07:57;101388.09;;;22.17;67.27
16580;BME280;8402;51.466;6.806;2022-08-21T07:10:26;101385.47;;;22.32;65.71
16580;BME280;8402;51.466;6.806;2022-08-21T07:12:55;101378.53;;;22.48;65.32
16580;BME280;8402;51.466;6.806;2022-08-21T07:15:27;101385.91;;;22.74;65.46
16580;BME280;8402;51.466;6.806;2022-08-21T07:17:56;101397.97;;;22.96;64.15
16580;BME280;8402;51.466;6.806;2022-08-21T07:20:26;101391.00;;;23.13;63.02
16580;BME280;8402;51.466;6.806;2022-08-21T07:22:56;101395.09;;;23.30;62.53
16580;BME280;8402;51.466;6.806;2022-08-21T07:25:25;101389.66;;;23.48;62.31
16580;BME280;8402;51.466;6.806;2022-08-21T07:27:53;101392.56;;;23.69;61.90
16580;BME280;8402;51.466;6.806;2022-08-21T07:30:21;101388.25;;;23.79;60.15
16580;BME280;8402;51.466;6.806;2022-08-21T07:32:50;101394.66;;;23.86;59.64
16580;BME280;8402;51.466;6.806;2022-08-21T07:35:19;101392.28;;;23.88;59.63
16580;BME280;8402;51.466;6.806;2022-08-21T07:37:49;101393.53;;;24.02;58.94
16580;BME280;8402;51.466;6.806;2022-08-21T07:40:17;101400.31;;;24.15;58.54
16580;BME280;8402;51.466;6.806;2022-08-21T07:42:47;101386.84;;;24.21;58.02
16580;BME280;8402;51.466;6.806;2022-08-21T07:45:17;101394.00;;;24.25;57.49
16580;BME280;8402;51.466;6.806;2022-08-21T07:47:46;101393.66;;;24.37;58.15
16580;BME280;8402;51.466;6.806;2022-08-21T07:50:15;101392.09;;;24.54;57.15
16580;BME280;8402;51.466;6.806;2022-08-21T07:52:43;101391.72;;;24.70;56.29
16580;BME280;8402;51.466;6.806;2022-08-21T07:55:16;101391.75;;;24.81;55.09
16580;BME280;8402;51.466;6.806;2022-08-21T07:57:45;101383.41;;;24.98;55.46
16580;BME280;8402;51.466;6.806;2022-08-21T08:00:17;101390.19;;;25.19;54.84
16580;BME280;8402;51.466;6.806;2022-08-21T08:02:48;101382.59;;;25.41;54.19
16580;BME280;8402;51.466;6.806;2022-08-21T08:05:19;101382.63;;;25.30;52.57
16580;BME280;8402;51.466;6.806;2022-08-21T08:07:48;101375.84;;;25.35;52.67
16580;BME280;8402;51.466;6.806;2022-08-21T08:10:18;101380.59;;;25.48;52.78
16580;BME280;8402;51.466;6.806;2022-08-21T08:12:46;101380.19;;;25.61;51.71
16580;BME280;8402;51.466;6.806;2022-08-21T08:15:18;101376.56;;;25.71;51.62
16580;BME280;8402;51.466;6.806;2022-08-21T08:17:46;101383.31;;;25.81;51.09
16580;BME280;8402;51.466;6.806;2022-08-21T08:20:16;101375.78;;;25.81;50.53
16580;BME280;8402;51.466;6.806;2022-08-21T08:22:46;101378.16;;;25.79;50.82
16580;BME280;8402;51.466;6.806;2022-08-21T08:25:19;101372.53;;;26.00;51.23
16580;BME280;8402;51.466;6.806;2022-08-21T08:27:47;101378.31;;;26.31;51.46
16580;BME280;8402;51.466;6.806;2022-08-21T08:30:17;101371.44;;;26.53;50.54
16580;BME280;8402;51.466;6.806;2022-08-21T08:32:46;101377.63;;;26.72;50.58
16580;BME280;8402;51.466;6.806;2022-08-21T08:35:14;101369.53;;;26.92;49.76
16580;BME280;8402;51.466;6.806;2022-08-21T08:37:42;101371.84;;;27.00;49.12
16580;BME280;8402;51.466;6.806;2022-08-21T08:40:23;101368.66;;;27.05;48.26
16580;BME280;8402;51.466;6.806;2022-08-21T08:42:56;101367.00;;;27.11;48.50
16580;BME280;8402;51.466;6.806;2022-08-21T08:45:25;101370.16;;;27.13;48.44
16580;BME280;8402;51.466;6.806;2022-08-21T08:47:58;101366.78;;;27.33;48.34
16580;BME280;8402;51.466;6.806;2022-08-21T08:50:40;101361.44;;;27.49;48.30
16580;BME280;8402;51.466;6.806;2022-08-21T08:53:12;101357.59;;;27.74;48.60
16580;BME280;8402;51.466;6.806;2022-08-21T08:55:45;101351.09;;;27.84;47.68
16580;BME280;8402;51.466;6.806;2022-08-21T08:58:18;101356.56;;;27.91;47.83
16580;BME280;8402;51.466;6.806;2022-08-21T09:00:49;101358.06;;;27.99;48.11
16580;BME280;8402;51.466;6.806;2022-08-21T09:03:18;101356.38;;;28.05;47.06
16580;BME280;8402;51.466;6.806;2022-08-21T09:05:48;101356.34;;;28.09;46.52
16580;BME280;8402;51.466;6.806;2022-08-21T09:08:29;101358.25;;;28.15;45.66
16580;BME280;8402;51.466;6.806;2022-08-21T09:11:05;101357.16;;;28.06;45.74
16580;BME280;8402;51.466;6.806;2022-08-21T09:13:47;101350.28;;;27.87;45.29
16580;BME280;8402;51.466;6.806;2022-08-21T09:16:25;101349.66;;;27.72;44.26
16580;BME280;8402;51.466;6.806;2022-08-21T09:19:03;101353.44;;;27.85;46.11
16580;BME280;8402;51.466;6.806;2022-08-21T09:21:38;101339.72;;;28.02;45.29
16580;BME280;8402;51.466;6.806;2022-08-21T09:24:19;101348.78;;;28.09;45.32
16580;BME280;8402;51.466;6.806;2022-08-21T09:26:57;101343.63;;;28.35;45.27
16580;BME280;8402;51.466;6.806;2022-08-21T09:29:33;101352.63;;;28.46;44.59
16580;BME280;8402;51.466;6.806;2022-08-21T09:32:03;101344.34;;;28.66;45.44
16580;BME280;8402;51.466;6.806;2022-08-21T09:34:31;101346.47;;;28.82;45.62
16580;BME280;8402;51.466;6.806;2022-08-21T09:36:59;101346.13;;;28.79;44.70
16580;BME280;8402;51.466;6.806;2022-08-21T09:39:30;101343.03;;;28.74;44.16
16580;BME280;8402;51.466;6.806;2022-08-21T09:42:09;101348.91;;;28.79;43.40
16580;BME280;8402;51.466;6.806;2022-08-21T09:44:39;101338.81;;;28.86;43.70
16580;BME280;8402;51.466;6.806;2022-08-21T09:47:11;101331.81;;;29.01;44.07
16580;BME280;8402;51.466;6.806;2022-08-21T09:49:42;101341.84;;;29.18;43.40
16580;BME280;8402;51.466;6.806;2022-08-21T09:52:16;101335.25;;;29.28;42.90
16580;BME280;8402;51.466;6.806;2022-08-21T09:54:46;101332.69;;;29.18;42.50
16580;BME280;8402;51.466;6.806;2022-08-21T09:57:24;101333.00;;;29.23;42.77
16580;BME280;8402;51.466;6.806;2022-08-21T10:00:20;101329.97;;;29.34;42.03
16580;BME280;8402;51.466;6.806;2022-08-21T10:02:52;101336.94;;;29.46;42.16
16580;BME280;8402;51.466;6.806;2022-08-21T10:05:23;101322.19;;;29.45;42.00
16580;BME280;8402;51.466;6.806;2022-08-21T10:07:51;101338.50;;;29.47;41.80
16580;BME280;8402;51.466;6.806;2022-08-21T10:10:22;101321.97;;;29.56;41.60
16580;BME280;8402;51.466;6.806;2022-08-21T10:12:58;101325.84;;;29.62;41.54
16580;BME280;8402;51.466;6.806;2022-08-21T10:15:37;101321.31;;;29.48;39.59
16580;BME280;8402;51.466;6.806;2022-08-21T10:18:14;101318.34;;;29.36;40.87
16580;BME280;8402;51.466;6.806;2022-08-21T10:20:50;101320.50;;;29.48;40.75
16580;BME280;8402;51.466;6.806;2022-08-21T10:23:34;101320.59;;;29.44;39.92
16580;BME280;8402;51.466;6.806;2022-08-21T10:26:10;101315.44;;;29.63;40.66
16580;BME280;8402;51.466;6.806;2022-08-21T10:28:51;101310.91;;;29.88;41.04
16580;BME280;8402;51.466;6.806;2022-08-21T10:31:29;101313.88;;;29.98;38.64
16580;BME280;8402;51.466;6.806;2022-08-21T10:34:09;101318.53;;;30.04;39.37
16580;BME280;8402;51.466;6.806;2022-08-21T10:36:46;101306.97;;;30.22;40.33
16580;BME280;8402;51.466;6.806;2022-08-21T10:39:24;101305.38;;;30.21;39.81
16580;BME280;8402;51.466;6.806;2022-08-21T10:42:15;101311.84;;;30.18;39.10
16580;BME280;8402;51.466;6.806;2022-08-21T10:44:53;101310.91;;;30.25;39.55
16580;BME280;8402;51.466;6.806;2022-08-21T10:47:28;101301.44;;;30.19;38.39
16580;BME280;8402;51.466;6.806;2022-08-21T10:50:08;101294.34;;;30.14;38.48
16580;BME280;8402;51.466;6.806;2022-08-21T10:52:51;101302.16;;;29.86;39.46
16580;BME280;8402;51.466;6.806;2022-08-21T10:55:26;101307.13;;;30.15;39.59
16580;BME280;8402;51.466;6.806;2022-08-21T10:58:01;101307.13;;;30.48;39.66
16580;BME280;8402;51.466;6.806;2022-08-21T11:00:36;101305.22;;;30.61;38.85
16580;BME280;8402;51.466;6.806;2022-08-21T11:03:11;101303.47;;;30.51;37.80
16580;BME280;8402;51.466;6.806;2022-08-21T11:05:42;101303.84;;;30.36;38.49
16580;BME280;8402;51.466;6.806;2022-08-21T11:08:20;101310.91;;;30.25;38.02
16580;BME280;8402;51.466;6.806;2022-08-21T11:10:53;101306.34;;;30.31;38.29
16580;BME280;8402;51.466;6.806;2022-08-21T11:13:30;101299.59;;;30.28;38.64
16580;BME280;8402;51.466;6.806;2022-08-21T11:16:05;101313.09;;;30.33;39.41
16580;BME280;8402;51.466;6.806;2022-08-21T11:18:39;101303.28;;;30.41;38.97
16580;BME280;8402;51.466;6.806;2022-08-21T11:21:20;101303.75;;;30.04;37.63
16580;BME280;8402;51.466;6.806;2022-08-21T11:23:56;101311.13;;;30.14;38.71
16580;BME280;8402;51.466;6.806;2022-08-21T11:26:34;101304.34;;;30.31;38.59
16580;BME280;8402;51.466;6.806;2022-08-21T11:29:11;101305.41;;;30.54;38.40
16580;BME280;8402;51.466;6.806;2022-08-21T11:31:51;101301.69;;;30.57;37.75
16580;BME280;8402;51.466;6.806;2022-08-21T11:34:32;101303.31;;;30.74;37.56
16580;BME280;8402;51.466;6.806;2022-08-21T11:37:06;101302.94;;;30.88;38.24
16580;BME280;8402;51.466;6.806;2022-08-21T11:39:45;101302.88;;;31.05;37.63
16580;BME280;8402;51.466;6.806;2022-08-21T11:42:20;101309.53;;;31.11;36.97
16580;BME280;8402;51.466;6.806;2022-08-21T11:44:55;101303.72;;;31.18;37.23
16580;BME280;8402;51.466;6.806;2022-08-21T11:47:34;101309.63;;;31.07;36.29
16580;BME280;8402;51.466;6.806;2022-08-21T11:50:13;101305.88;;;30.98;37.21
16580;BME280;8402;51.466;6.806;2022-08-21T11:53:05;101301.38;;;30.87;36.63
16580;BME280;8402;51.466;6.806;2022-08-21T11:55:39;101307.66;;;30.91;38.27
16580;BME280;8402;51.466;6.806;2022-08-21T11:58:14;101310.47;;;30.75;37.12
16580;BME280;8402;51.466;6.806;2022-08-21T12:00:47;101306.44;;;30.76;38.31
16580;BME280;8402;51.466;6.806;2022-08-21T12:03:25;101305.06;;;30.68;37.15
16580;BME280;8402;51.466;6.806;2022-08-21T12:05:57;101300.16;;;30.72;37.20
16580;BME280;8402;51.466;6.806;2022-08-21T12:08:28;101294.38;;;30.79;37.66
16580;BME280;8402;51.466;6.806;2022-08-21T12:11:05;101298.19;;;30.85;36.96
16580;BME280;8402;51.466;6.806;2022-08-21T12:13:36;101292.69;;;30.82;37.66
16580;BME280;8402;51.466;6.806;2022-08-21T12:16:12;101290.16;;;30.87;36.84
16580;BME280;8402;51.466;6.806;2022-08-21T12:18:43;101283.28;;;31.05;38.73
16580;BME280;8402;51.466;6.806;2022-08-21T12:21:23;101279.44;;;30.99;37.64
16580;BME280;8402;51.466;6.806;2022-08-21T12:24:02;101283.53;;;31.10;37.56
16580;BME280;8402;51.466;6.806;2022-08-21T12:26:33;101289.22;;;31.23;36.71
16580;BME280;8402;51.466;6.806;2022-08-21T12:29:12;101289.34;;;31.32;36.55
16580;BME280;8402;51.466;6.806;2022-08-21T12:31:56;101290.38;;;31.38;35.48
16580;BME280;8402;51.466;6.806;2022-08-21T12:34:32;101286.53;;;31.32;37.13
16580;BME280;8402;51.466;6.806;2022-08-21T12:37:05;101278.75;;;31.53;36.85
16580;BME280;8402;51.466;6.806;2022-08-21T12:39:37;101266.94;;;31.58;36.40
16580;BME280;8402;51.466;6.806;2022-08-21T12:42:11;101277.16;;;31.52;36.73
16580;BME280;8402;51.466;6.806;2022-08-21T12:44:46;101287.00;;;31.43;35.82
16580;BME280;8402;51.466;6.806;2022-08-21T12:47:20;101278.78;;;31.36;35.81
16580;BME280;8402;51.466;6.806;2022-08-21T12:49:56;101269.19;;;31.21;34.63
16580;BME280;8402;51.466;6.806;2022-08-21T12:52:30;101275.00;;;31.30;36.06
16580;BME280;8402;51.466;6.806;2022-08-21T12:55:06;101274.34;;;31.39;36.30
16580;BME280;8402;51.466;6.806;2022-08-21T12:57:36;101273.41;;;31.29;35.64
16580;BME280;8402;51.466;6.806;2022-08-21T13:00:07;101277.59;;;31.21;35.92
16580;BME280;8402;51.466;6.806;2022-08-21T13:02:42;101274.91;;;31.17;35.57
16580;BME280;8402;51.466;6.806;2022-08-21T13:05:15;101275.00;;;31.14;34.93
16580;BME280;8402;51.466;6.806;2022-08-21T13:07:46;101274.22;;;31.13;35.50
16580;BME280;8402;51.466;6.806;2022-08-21T13:10:19;101269.50;;;31.10;34.67
16580;BME280;8402;51.466;6.806;2022-08-21T13:12:48;101275.84;;;31.27;34.61
16580;BME280;8402;51.466;6.806;2022-08-21T13:15:25;101281.13;;;31.25;33.91
16580;BME280;8402;51.466;6.806;2022-08-21T13:18:00;101274.78;;;31.50;34.28
16580;BME280;8402;51.466;6.806;2022-08-21T13:20:33;101273.94;;;31.78;34.59
16580;BME280;8402;51.466;6.806;2022-08-21T13:23:02;101274.50;;;31.86;35.24